createdAt,value
2023-03-28T00:01:12.130Z,14.60
2023-03-28T00:03:40.648Z,15.70
2023-03-28T00:06:14.039Z,15.10
2023-03-28T00:08:42.059Z,14.50
2023-03-28T00:11:18.886Z,15.20
2023-03-28T00:14:00.473Z,14.90
2023-03-28T00:16:32.417Z,14.40
2023-03-28T00:19:11.809Z,15.40
2023-03-28T00:21:41.505Z,16.60
2023-03-28T00:24:14.042Z,15.70
2023-03-28T00:26:43.432Z,15.50
2023-03-28T00:29:15.877Z,15.10
2023-03-28T00:31:43.692Z,13.70
2023-03-28T00:34:11.550Z,15.70
2023-03-28T00:36:39.959Z,13.40
2023-03-28T00:39:10.274Z,12.80
2023-03-28T00:41:41.525Z,12.00
2023-03-28T00:44:43.902Z,12.70
2023-03-28T00:47:25.816Z,12.30
2023-03-28T00:49:58.040Z,12.30
2023-03-28T00:52:29.482Z,12.50
2023-03-28T00:54:58.532Z,12.60
2023-03-28T00:57:26.923Z,11.90
2023-03-28T00:59:54.878Z,12.10
2023-03-28T01:02:22.694Z,12.00
2023-03-28T01:04:57.842Z,13.00
2023-03-28T01:07:26.799Z,13.30
2023-03-28T01:09:54.736Z,13.80
2023-03-28T01:12:23.932Z,14.30
2023-03-28T01:14:52.481Z,13.10
2023-03-28T01:17:22.152Z,13.60
2023-03-28T01:20:40.095Z,13.60
2023-03-28T01:23:19.824Z,12.90
2023-03-28T01:25:50.173Z,13.10
2023-03-28T01:28:30.378Z,13.40
2023-03-28T01:31:25.340Z,14.80
2023-03-28T01:34:55.966Z,13.40
2023-03-28T01:37:32.776Z,11.80
2023-03-28T01:40:15.771Z,14.20
2023-03-28T01:43:13.247Z,12.30
2023-03-28T01:46:19.496Z,13.50
2023-03-28T01:49:21.765Z,13.60
2023-03-28T01:51:55.773Z,13.60
2023-03-28T01:54:48.316Z,13.10
2023-03-28T01:57:26.773Z,13.50
2023-03-28T02:00:19.735Z,11.80
2023-03-28T02:03:29.362Z,13.90
2023-03-28T02:06:03.265Z,13.30
2023-03-28T02:08:34.010Z,12.60
2023-03-28T02:11:25.618Z,13.10
2023-03-28T02:14:16.164Z,13.30
2023-03-28T02:17:06.404Z,14.40
2023-03-28T02:19:53.294Z,14.00
2023-03-28T02:22:35.990Z,14.20
2023-03-28T02:25:11.909Z,14.20
2023-03-28T02:27:41.083Z,15.20
2023-03-28T02:30:23.521Z,14.70
2023-03-28T02:32:51.704Z,15.60
2023-03-28T02:35:26.543Z,14.60
2023-03-28T02:38:09.315Z,15.60
2023-03-28T02:41:06.036Z,15.90
2023-03-28T02:44:06.220Z,16.20
2023-03-28T02:46:55.913Z,15.30
2023-03-28T02:49:50.407Z,14.80
2023-03-28T02:52:51.915Z,15.80
2023-03-28T02:55:33.215Z,16.60
2023-03-28T02:58:34.190Z,16.30
2023-03-28T03:01:10.432Z,16.70
2023-03-28T03:03:38.280Z,15.60
2023-03-28T03:06:07.011Z,15.20
2023-03-28T03:08:34.799Z,15.20
2023-03-28T03:11:02.396Z,15.10
2023-03-28T03:13:30.034Z,14.60
2023-03-28T03:16:02.742Z,14.90
2023-03-28T03:18:32.473Z,15.10
2023-03-28T03:21:01.660Z,14.70
2023-03-28T03:23:29.578Z,14.60
2023-03-28T03:25:59.409Z,13.90
2023-03-28T03:28:35.209Z,13.30
2023-03-28T03:31:04.327Z,13.30
2023-03-28T03:33:44.170Z,13.00
2023-03-28T03:36:13.070Z,13.60
2023-03-28T03:38:41.691Z,12.70
2023-03-28T03:41:10.222Z,13.30
2023-03-28T03:43:37.927Z,12.60
2023-03-28T03:46:07.039Z,12.40
2023-03-28T03:48:34.827Z,13.00
2023-03-28T03:51:02.946Z,13.20
2023-03-28T03:53:30.731Z,12.40
2023-03-28T03:56:05.111Z,12.60
2023-03-28T03:58:50.118Z,14.00
2023-03-28T04:01:18.311Z,13.70
2023-03-28T04:03:48.168Z,13.60
2023-03-28T04:06:21.484Z,12.80
2023-03-28T04:08:49.411Z,12.70
2023-03-28T04:11:26.490Z,12.50
2023-03-28T04:13:54.302Z,11.60
2023-03-28T04:16:23.759Z,10.60
2023-03-28T04:18:59.619Z,10.60
2023-03-28T04:21:30.110Z,10.50
2023-03-28T04:24:01.877Z,10.30
2023-03-28T04:26:49.746Z,10.80
2023-03-28T04:29:18.856Z,10.50
2023-03-28T04:32:02.283Z,11.70
2023-03-28T04:34:52.630Z,12.10
2023-03-28T04:37:20.482Z,14.00
2023-03-28T04:39:54.261Z,14.60
2023-03-28T04:42:27.786Z,14.40
2023-03-28T04:45:27.837Z,15.20
2023-03-28T04:47:56.646Z,15.00
2023-03-28T04:50:24.373Z,16.10
2023-03-28T04:52:52.052Z,14.60
2023-03-28T04:55:20.265Z,15.90
2023-03-28T04:57:49.012Z,16.30
2023-03-28T05:00:22.581Z,15.40
2023-03-28T05:03:06.506Z,15.10
2023-03-28T05:05:39.247Z,14.70
2023-03-28T05:08:09.804Z,14.40
2023-03-28T05:10:37.576Z,13.00
2023-03-28T05:13:06.992Z,12.40
2023-03-28T05:15:42.338Z,11.10
2023-03-28T05:18:28.069Z,11.40
2023-03-28T05:20:55.830Z,10.30
2023-03-28T05:23:23.699Z,9.80
2023-03-28T05:25:53.527Z,8.80
2023-03-28T05:28:22.893Z,7.90
2023-03-28T05:30:52.324Z,7.40
2023-03-28T05:33:20.331Z,7.10
2023-03-28T05:35:48.233Z,6.50
2023-03-28T05:38:16.906Z,6.90
2023-03-28T05:40:46.805Z,6.70
2023-03-28T05:43:16.715Z,6.70
2023-03-28T05:45:44.611Z,7.00
2023-03-28T05:48:20.167Z,6.70
2023-03-28T05:50:49.577Z,6.90
2023-03-28T05:53:17.393Z,6.30
2023-03-28T05:55:45.889Z,5.80
2023-03-28T05:58:13.661Z,6.50
2023-03-28T06:00:42.652Z,6.40
2023-03-28T06:03:17.448Z,6.20
2023-03-28T06:05:46.360Z,5.40
2023-03-28T06:08:20.933Z,5.30
2023-03-28T06:10:49.027Z,5.80
2023-03-28T06:13:28.900Z,5.50
2023-03-28T06:15:56.810Z,5.60
2023-03-28T06:18:36.007Z,5.60
2023-03-28T06:21:04.760Z,5.00
2023-03-28T06:23:32.842Z,4.50
2023-03-28T06:26:02.302Z,4.70
2023-03-28T06:28:34.875Z,4.70
2023-03-28T06:31:19.912Z,4.50
2023-03-28T06:33:48.142Z,4.60
2023-03-28T06:36:19.020Z,5.40
2023-03-28T06:38:47.592Z,4.70
2023-03-28T06:41:16.374Z,4.80
2023-03-28T06:43:44.042Z,4.70
2023-03-28T06:46:32.411Z,4.40
2023-03-28T06:49:00.913Z,4.50
2023-03-28T06:51:48.610Z,4.50
2023-03-28T06:54:16.336Z,4.60
2023-03-28T06:56:44.364Z,4.70
2023-03-28T06:59:12.148Z,4.50
2023-03-28T07:01:40.181Z,4.90
2023-03-28T07:04:11.399Z,4.70
2023-03-28T07:06:39.203Z,4.60
2023-03-28T07:09:07.004Z,4.90
2023-03-28T07:11:44.747Z,5.10
2023-03-28T07:14:12.444Z,4.70
2023-03-28T07:16:40.724Z,5.30
2023-03-28T07:19:11.084Z,5.10
2023-03-28T07:21:41.745Z,5.40
2023-03-28T07:24:09.443Z,5.60
2023-03-28T07:26:46.986Z,5.50
2023-03-28T07:29:14.700Z,5.80
2023-03-28T07:31:42.613Z,5.40
2023-03-28T07:34:10.541Z,5.60
2023-03-28T07:36:39.729Z,5.80
2023-03-28T07:39:13.769Z,7.00
2023-03-28T07:41:41.870Z,7.20
2023-03-28T07:44:09.897Z,4.60
2023-03-28T07:46:38.522Z,4.40
2023-03-28T07:49:06.717Z,5.30
2023-03-28T07:51:35.631Z,4.20
2023-03-28T07:54:05.051Z,6.00
2023-03-28T07:56:32.709Z,6.20
2023-03-28T07:59:07.585Z,5.20
2023-03-28T08:01:35.237Z,5.20
2023-03-28T08:04:04.339Z,6.30
2023-03-28T08:06:58.167Z,5.80
2023-03-28T08:09:26.216Z,5.70
2023-03-28T08:12:08.726Z,5.50
2023-03-28T08:14:36.885Z,4.80
2023-03-28T08:17:04.878Z,4.80
2023-03-28T08:19:32.531Z,5.80
2023-03-28T08:22:29.383Z,5.60
2023-03-28T08:25:15.708Z,6.00
2023-03-28T08:27:44.850Z,5.80
2023-03-28T08:30:13.577Z,5.60
2023-03-28T08:32:51.687Z,6.10
2023-03-28T08:35:19.567Z,5.60
2023-03-28T08:37:49.012Z,5.90
2023-03-28T08:40:19.326Z,5.90
2023-03-28T08:43:16.023Z,6.70
2023-03-28T08:45:49.558Z,6.30
2023-03-28T08:48:34.706Z,5.40
2023-03-28T08:51:28.313Z,6.40
2023-03-28T08:54:18.245Z,5.50
2023-03-28T08:56:53.317Z,4.70
2023-03-28T08:59:56.375Z,4.80
2023-03-28T09:02:27.569Z,4.50
2023-03-28T09:05:08.161Z,4.00
2023-03-28T09:08:09.152Z,4.40
2023-03-28T09:10:41.702Z,3.40
2023-03-28T09:13:33.970Z,3.70
2023-03-28T09:16:20.574Z,3.30
2023-03-28T09:19:04.435Z,3.00
2023-03-28T09:22:12.467Z,3.00
2023-03-28T09:25:03.716Z,3.80
2023-03-28T09:27:38.959Z,3.80
2023-03-28T09:30:20.811Z,2.90
2023-03-28T09:32:53.016Z,2.40
2023-03-28T09:35:22.171Z,2.60
2023-03-28T09:37:53.569Z,2.50
2023-03-28T09:40:29.090Z,1.90
2023-03-28T09:44:04.001Z,2.00
2023-03-28T09:46:44.910Z,2.00
2023-03-28T09:49:25.717Z,2.30
2023-03-28T09:51:57.131Z,2.30
2023-03-28T09:54:30.333Z,2.40
2023-03-28T09:57:03.704Z,2.40
2023-03-28T09:59:46.424Z,2.00
2023-03-28T10:02:32.290Z,2.80
2023-03-28T10:05:05.666Z,2.30
2023-03-28T10:07:59.068Z,2.50
2023-03-28T10:10:26.729Z,2.40
2023-03-28T10:13:20.796Z,2.40
2023-03-28T10:15:50.986Z,3.10
2023-03-28T10:18:40.608Z,2.20
2023-03-28T10:21:15.242Z,1.90
2023-03-28T10:23:48.615Z,1.80
2023-03-28T10:26:22.145Z,2.00
2023-03-28T10:28:54.957Z,2.00
2023-03-28T10:31:29.714Z,1.70
2023-03-28T10:34:23.763Z,2.00
2023-03-28T10:37:34.239Z,1.90
2023-03-28T10:40:19.993Z,2.00
2023-03-28T10:43:03.260Z,2.30
2023-03-28T10:45:47.137Z,2.10
2023-03-28T10:48:26.774Z,2.30
2023-03-28T10:50:58.945Z,3.20
2023-03-28T10:53:49.154Z,2.50
2023-03-28T10:56:41.491Z,2.80
2023-03-28T10:59:33.979Z,2.50
2023-03-28T11:02:37.062Z,2.80
2023-03-28T11:05:23.050Z,2.40
2023-03-28T11:08:29.678Z,2.50
2023-03-28T11:11:17.353Z,2.60
2023-03-28T11:14:41.283Z,2.50
2023-03-28T11:17:24.592Z,2.50
2023-03-28T11:20:17.580Z,2.40
2023-03-28T11:23:28.606Z,2.50
2023-03-28T11:26:33.995Z,2.40
2023-03-28T11:29:58.560Z,2.60
2023-03-28T11:32:39.081Z,2.40
2023-03-28T11:35:12.684Z,1.70
2023-03-28T11:38:20.338Z,2.20
2023-03-28T11:41:14.301Z,2.20
2023-03-28T11:44:32.893Z,1.80
2023-03-28T11:47:23.732Z,2.40
2023-03-28T11:50:05.683Z,2.30
2023-03-28T11:53:03.323Z,2.00
2023-03-28T11:55:36.616Z,1.90
2023-03-28T11:58:12.308Z,2.80
2023-03-28T12:00:45.158Z,2.00
2023-03-28T12:03:30.962Z,2.10
2023-03-28T12:06:12.045Z,1.80
2023-03-28T12:08:49.241Z,1.80
2023-03-28T12:11:48.016Z,1.40
2023-03-28T12:14:27.974Z,1.80
2023-03-28T12:16:58.777Z,1.60
2023-03-28T12:19:36.868Z,1.80
2023-03-28T12:22:18.910Z,1.50
2023-03-28T12:25:00.413Z,1.60
2023-03-28T12:27:47.581Z,1.50
2023-03-28T12:30:22.948Z,1.70
2023-03-28T12:33:15.177Z,1.60
2023-03-28T12:35:53.595Z,1.70
2023-03-28T12:38:28.293Z,2.00
2023-03-28T12:41:06.776Z,2.00
2023-03-28T12:44:02.374Z,1.80
2023-03-28T12:46:46.281Z,2.20
2023-03-28T12:49:22.713Z,2.30
2023-03-28T12:52:00.262Z,1.80
2023-03-28T12:54:30.272Z,2.50
2023-03-28T12:57:02.636Z,3.00
2023-03-28T12:59:40.031Z,3.20
2023-03-28T13:02:34.868Z,4.30
2023-03-28T13:05:20.948Z,3.80
2023-03-28T13:08:06.050Z,3.00
2023-03-28T13:10:41.694Z,4.40
2023-03-28T13:13:40.336Z,2.60
2023-03-28T13:16:17.096Z,3.60
2023-03-28T13:18:49.459Z,2.90
2023-03-28T13:21:49.848Z,2.50
2023-03-28T13:24:34.359Z,2.70
2023-03-28T13:27:14.080Z,2.10
2023-03-28T13:29:52.751Z,3.30
2023-03-28T13:32:23.373Z,3.20
2023-03-28T13:34:57.698Z,3.20
2023-03-28T13:37:43.802Z,7.10
2023-03-28T13:40:48.429Z,5.60
2023-03-28T13:43:29.284Z,3.60
2023-03-28T13:46:00.193Z,2.60
2023-03-28T13:48:34.096Z,4.00
2023-03-28T13:51:06.699Z,2.70
2023-03-28T13:53:46.373Z,2.40
2023-03-28T13:56:31.656Z,3.40
2023-03-28T13:59:00.763Z,3.50
2023-03-28T14:01:46.777Z,3.90
2023-03-28T14:04:20.343Z,5.00
2023-03-28T14:06:48.639Z,5.00
2023-03-28T14:09:32.559Z,3.30
2023-03-28T14:12:13.099Z,3.00
2023-03-28T14:14:52.361Z,3.80
2023-03-28T14:17:25.798Z,5.70
2023-03-28T14:19:58.882Z,4.10
2023-03-28T14:22:31.004Z,3.10
2023-03-28T14:25:01.291Z,3.40
2023-03-28T14:27:52.035Z,3.30
2023-03-28T14:30:28.644Z,3.80
2023-03-28T14:33:01.787Z,3.60
2023-03-28T14:35:31.654Z,3.40
2023-03-28T14:38:03.144Z,3.60
2023-03-28T14:40:34.399Z,2.90
2023-03-28T14:43:07.204Z,2.60
2023-03-28T14:45:37.779Z,5.00
2023-03-28T14:48:08.681Z,5.20
2023-03-28T14:50:38.279Z,6.30
2023-03-28T14:53:17.361Z,5.00
2023-03-28T14:55:46.472Z,5.00
2023-03-28T14:58:14.228Z,3.50
2023-03-28T15:00:44.085Z,4.00
2023-03-28T15:03:15.578Z,5.70
2023-03-28T15:05:44.713Z,5.40
2023-03-28T15:08:31.647Z,5.00
2023-03-28T15:11:03.318Z,5.20
2023-03-28T15:13:37.183Z,5.50
2023-03-28T15:16:06.437Z,7.30
2023-03-28T15:18:44.468Z,8.10
2023-03-28T15:21:13.161Z,6.20
2023-03-28T15:23:46.591Z,5.80
2023-03-28T15:26:34.384Z,9.20
2023-03-28T15:29:02.462Z,5.00
2023-03-28T15:31:30.827Z,5.20
2023-03-28T15:33:58.576Z,4.80
2023-03-28T15:36:32.248Z,5.50
2023-03-28T15:39:02.235Z,8.90
2023-03-28T15:41:39.131Z,11.50
2023-03-28T15:44:30.227Z,9.70
2023-03-28T15:47:04.463Z,5.90
2023-03-28T15:49:36.769Z,5.60
2023-03-28T15:52:19.994Z,5.50
2023-03-28T15:54:54.646Z,6.00
2023-03-28T15:57:24.844Z,6.50
2023-03-28T15:59:53.787Z,6.00
2023-03-28T16:02:24.631Z,4.80
2023-03-28T16:05:00.713Z,6.20
2023-03-28T16:07:43.516Z,5.40
2023-03-28T16:10:13.394Z,4.60
2023-03-28T16:12:57.567Z,5.10
2023-03-28T16:15:54.903Z,4.90
2023-03-28T16:18:34.369Z,4.30
2023-03-28T16:21:02.928Z,4.30
2023-03-28T16:23:30.726Z,4.20
2023-03-28T16:25:58.618Z,3.10
2023-03-28T16:28:27.147Z,3.60
2023-03-28T16:30:54.757Z,3.70
2023-03-28T16:33:22.481Z,3.70
2023-03-28T16:35:51.198Z,5.70
2023-03-28T16:38:18.923Z,5.10
2023-03-28T16:40:48.548Z,9.00
2023-03-28T16:43:17.319Z,5.90
2023-03-28T16:45:47.323Z,3.80
2023-03-28T16:48:15.632Z,6.80
2023-03-28T16:50:49.306Z,16.90
2023-03-28T16:53:16.956Z,6.90
2023-03-28T16:55:45.482Z,4.40
2023-03-28T16:58:13.376Z,6.70
2023-03-28T17:00:45.026Z,10.80
2023-03-28T17:03:12.830Z,4.50
2023-03-28T17:05:41.470Z,4.50
2023-03-28T17:08:09.787Z,4.80
2023-03-28T17:10:42.752Z,3.80
2023-03-28T17:13:10.638Z,3.40
2023-03-28T17:15:38.319Z,4.10
2023-03-28T17:18:06.288Z,4.30
2023-03-28T17:20:34.320Z,4.20
2023-03-28T17:23:02.404Z,3.50
2023-03-28T17:25:30.296Z,5.40
2023-03-28T17:27:57.971Z,11.20
2023-03-28T17:30:25.907Z,18.30
2023-03-28T17:32:53.681Z,19.70
2023-03-28T17:35:21.542Z,7.80
2023-03-28T17:37:49.332Z,5.90
2023-03-28T17:40:16.962Z,5.20
2023-03-28T17:42:44.864Z,3.40
2023-03-28T17:45:13.160Z,4.60
2023-03-28T17:47:41.060Z,4.00
2023-03-28T17:50:09.341Z,5.30
2023-03-28T17:52:37.797Z,3.80
2023-03-28T17:55:06.338Z,9.80
2023-03-28T17:57:34.309Z,31.00
2023-03-28T18:00:03.192Z,46.00
2023-03-28T18:02:45.827Z,36.00
2023-03-28T18:05:24.563Z,18.80
2023-03-28T18:07:55.799Z,16.10
2023-03-28T18:10:23.953Z,16.20
2023-03-28T18:12:51.945Z,16.50
2023-03-28T18:15:19.938Z,17.10
2023-03-28T18:17:48.079Z,23.40
2023-03-28T18:20:16.110Z,10.50
2023-03-28T18:22:43.749Z,22.00
2023-03-28T18:25:11.391Z,19.60
2023-03-28T18:27:39.011Z,17.40
2023-03-28T18:30:08.270Z,30.90
2023-03-28T18:32:36.618Z,45.90
2023-03-28T18:35:07.328Z,20.50
2023-03-28T18:37:35.464Z,26.30
2023-03-28T18:40:07.100Z,19.30
2023-03-28T18:42:36.617Z,14.90
2023-03-28T18:45:04.913Z,12.60
2023-03-28T18:47:33.146Z,21.20
2023-03-28T18:50:00.783Z,28.10
2023-03-28T18:52:29.750Z,15.90
2023-03-28T18:54:57.981Z,14.40
2023-03-28T18:57:25.641Z,17.70
2023-03-28T18:59:55.560Z,18.10
2023-03-28T19:02:23.638Z,24.40
2023-03-28T19:04:51.524Z,19.40
2023-03-28T19:07:19.463Z,16.30
2023-03-28T19:09:47.461Z,7.20
2023-03-28T19:12:15.507Z,7.90
2023-03-28T19:14:43.120Z,20.90
2023-03-28T19:17:11.126Z,20.20
2023-03-28T19:19:38.742Z,26.10
2023-03-28T19:22:07.217Z,30.00
2023-03-28T19:24:35.144Z,29.30
2023-03-28T19:27:05.193Z,48.10
2023-03-28T19:29:33.500Z,24.00
2023-03-28T19:32:01.132Z,18.90
2023-03-28T19:34:29.220Z,20.20
2023-03-28T19:36:57.124Z,15.00
2023-03-28T19:39:24.737Z,14.20
2023-03-28T19:41:52.713Z,14.90
2023-03-28T19:44:20.655Z,13.30
2023-03-28T19:46:48.303Z,11.40
2023-03-28T19:49:17.262Z,21.10
2023-03-28T19:51:44.933Z,10.10
2023-03-28T19:54:12.773Z,8.30
2023-03-28T19:56:40.584Z,8.20
2023-03-28T19:59:08.204Z,8.20
2023-03-28T20:01:36.581Z,8.10
2023-03-28T20:04:04.498Z,6.60
2023-03-28T20:06:32.247Z,8.10
2023-03-28T20:09:00.487Z,7.60
2023-03-28T20:11:29.030Z,6.40
2023-03-28T20:13:57.425Z,6.30
2023-03-28T20:16:25.221Z,7.20
2023-03-28T20:18:55.221Z,8.30
2023-03-28T20:21:22.870Z,6.60
2023-03-28T20:23:50.514Z,6.90
2023-03-28T20:26:20.359Z,25.70
2023-03-28T20:28:50.386Z,13.50
2023-03-28T20:31:19.095Z,7.20
2023-03-28T20:33:46.875Z,6.70
2023-03-28T20:36:14.854Z,7.90
2023-03-28T20:38:42.561Z,8.70
2023-03-28T20:41:15.964Z,8.10
2023-03-28T20:43:47.132Z,7.50
2023-03-28T20:46:19.662Z,7.40
2023-03-28T20:48:52.396Z,10.50
2023-03-28T20:51:23.145Z,7.50
2023-03-28T20:53:54.747Z,6.70
2023-03-28T20:56:23.520Z,6.70
2023-03-28T20:58:52.975Z,9.60
2023-03-28T21:01:26.576Z,8.80
2023-03-28T21:03:57.886Z,7.40
2023-03-28T21:06:30.355Z,7.20
2023-03-28T21:09:01.923Z,7.50
2023-03-28T21:11:31.979Z,8.70
2023-03-28T21:14:00.288Z,9.30
2023-03-28T21:16:29.582Z,9.00
2023-03-28T21:18:58.046Z,10.60
2023-03-28T21:21:29.666Z,10.90
2023-03-28T21:23:57.370Z,10.10
2023-03-28T21:26:25.628Z,8.90
2023-03-28T21:28:53.337Z,9.00
2023-03-28T21:31:27.208Z,9.20
2023-03-28T21:33:57.293Z,8.90
2023-03-28T21:36:26.780Z,10.50
2023-03-28T21:38:55.740Z,9.90
2023-03-28T21:41:23.923Z,11.80
2023-03-28T21:43:53.632Z,10.70
2023-03-28T21:46:22.026Z,11.20
2023-03-28T21:48:49.874Z,10.40
2023-03-28T21:51:17.973Z,9.00
2023-03-28T21:53:46.305Z,8.70
2023-03-28T21:56:14.886Z,8.20
2023-03-28T21:58:42.595Z,9.60
2023-03-28T22:01:13.224Z,8.90
2023-03-28T22:03:41.331Z,8.90
2023-03-28T22:06:09.399Z,10.40
2023-03-28T22:08:37.037Z,8.70
2023-03-28T22:11:14.358Z,10.50
2023-03-28T22:13:45.339Z,8.60
2023-03-28T22:16:15.504Z,8.30
2023-03-28T22:18:49.549Z,9.60
2023-03-28T22:21:17.438Z,14.20
2023-03-28T22:23:47.565Z,13.30
2023-03-28T22:26:15.994Z,12.40
2023-03-28T22:28:44.128Z,12.10
2023-03-28T22:31:12.330Z,11.30
2023-03-28T22:33:40.224Z,11.70
2023-03-28T22:36:08.954Z,12.00
2023-03-28T22:38:37.438Z,13.50
2023-03-28T22:41:06.774Z,10.70
2023-03-28T22:43:35.049Z,10.90
2023-03-28T22:46:03.060Z,9.00
2023-03-28T22:48:31.354Z,11.80
2023-03-28T22:51:02.426Z,11.00
2023-03-28T22:53:30.428Z,9.60
2023-03-28T22:55:58.701Z,10.10
2023-03-28T22:58:27.192Z,10.20
2023-03-28T23:00:55.037Z,11.50
2023-03-28T23:03:22.863Z,9.40
2023-03-28T23:05:51.628Z,10.80
2023-03-28T23:08:19.400Z,9.70
2023-03-28T23:10:47.204Z,10.40
2023-03-28T23:13:14.855Z,9.50
2023-03-28T23:15:42.484Z,8.40
2023-03-28T23:18:10.249Z,11.50
2023-03-28T23:20:38.332Z,8.10
2023-03-28T23:23:06.807Z,10.20
2023-03-28T23:25:34.408Z,10.10
2023-03-28T23:28:01.991Z,9.70
2023-03-28T23:30:29.610Z,9.60
2023-03-28T23:32:57.277Z,8.60
2023-03-28T23:35:25.391Z,9.50
2023-03-28T23:37:53.090Z,8.10
2023-03-28T23:40:21.084Z,8.80
2023-03-28T23:42:48.801Z,8.20
2023-03-28T23:45:16.580Z,9.60
2023-03-28T23:47:44.603Z,11.60
2023-03-28T23:50:12.340Z,8.20
2023-03-28T23:52:40.760Z,9.20
2023-03-28T23:55:09.356Z,8.40
2023-03-28T23:57:37.165Z,9.20
